sensor_id;sensor_type;location;lat;lon;timestamp;P1;durP1;ratioP1;P2;durP2;ratioP2
25984;SDS011;66753;53.848;10.658;2023-12-20T00:06:38;7.07;;;1.30;;
25984;SDS011;66753;53.848;10.658;2023-12-20T00:21:44;6.87;;;1.40;;
25984;SDS011;66753;53.848;10.658;2023-12-20T00:36:45;6.07;;;1.33;;
25984;SDS011;66753;53.848;10.658;2023-12-20T00:51:47;3.23;;;0.73;;
25984;SDS011;66753;53.848;10.658;2023-12-20T01:06:50;7.53;;;0.87;;
25984;SDS011;66753;53.848;10.658;2023-12-20T01:21:52;6.07;;;1.17;;
25984;SDS011;66753;53.848;10.658;2023-12-20T01:36:53;8.73;;;1.07;;
25984;SDS011;66753;53.848;10.658;2023-12-20T01:51:54;4.97;;;0.80;;
25984;SDS011;66753;53.848;10.658;2023-12-20T02:06:56;4.83;;;0.67;;
25984;SDS011;66753;53.848;10.658;2023-12-20T02:22:10;3.90;;;0.60;;
25984;SDS011;66753;53.848;10.658;2023-12-20T02:37:12;6.40;;;1.13;;
25984;SDS011;66753;53.848;10.658;2023-12-20T02:52:14;5.83;;;0.80;;
25984;SDS011;66753;53.848;10.658;2023-12-20T03:07:16;3.23;;;0.67;;
25984;SDS011;66753;53.848;10.658;2023-12-20T03:22:17;7.10;;;0.70;;
25984;SDS011;66753;53.848;10.658;2023-12-20T03:37:18;4.17;;;0.90;;
25984;SDS011;66753;53.848;10.658;2023-12-20T03:52:20;5.17;;;0.60;;
25984;SDS011;66753;53.848;10.658;2023-12-20T04:07:21;3.47;;;0.60;;
25984;SDS011;66753;53.848;10.658;2023-12-20T04:22:22;6.37;;;0.80;;
25984;SDS011;66753;53.848;10.658;2023-12-20T04:37:24;4.50;;;0.90;;
25984;SDS011;66753;53.848;10.658;2023-12-20T04:52:26;4.63;;;0.63;;
25984;SDS011;66753;53.848;10.658;2023-12-20T05:07:28;4.43;;;1.10;;
25984;SDS011;66753;53.848;10.658;2023-12-20T05:22:30;1.97;;;0.70;;
25984;SDS011;66753;53.848;10.658;2023-12-20T05:37:32;11.90;;;1.03;;
25984;SDS011;66753;53.848;10.658;2023-12-20T05:52:34;5.60;;;1.70;;
25984;SDS011;66753;53.848;10.658;2023-12-20T06:07:36;4.03;;;0.70;;
25984;SDS011;66753;53.848;10.658;2023-12-20T06:22:38;3.73;;;0.60;;
25984;SDS011;66753;53.848;10.658;2023-12-20T06:37:40;3.27;;;0.77;;
25984;SDS011;66753;53.848;10.658;2023-12-20T06:52:43;4.97;;;0.80;;
25984;SDS011;66753;53.848;10.658;2023-12-20T07:07:45;3.47;;;0.70;;
25984;SDS011;66753;53.848;10.658;2023-12-20T07:22:48;6.53;;;0.90;;
25984;SDS011;66753;53.848;10.658;2023-12-20T07:37:49;3.37;;;1.07;;
25984;SDS011;66753;53.848;10.658;2023-12-20T07:52:50;4.50;;;0.90;;
25984;SDS011;66753;53.848;10.658;2023-12-20T08:07:51;3.97;;;1.27;;
25984;SDS011;66753;53.848;10.658;2023-12-20T08:22:52;4.40;;;1.03;;
25984;SDS011;66753;53.848;10.658;2023-12-20T08:37:53;5.13;;;1.50;;
25984;SDS011;66753;53.848;10.658;2023-12-20T08:52:54;9.27;;;1.47;;
25984;SDS011;66753;53.848;10.658;2023-12-20T09:07:56;4.97;;;1.47;;
25984;SDS011;66753;53.848;10.658;2023-12-20T09:22:57;7.97;;;1.60;;
25984;SDS011;66753;53.848;10.658;2023-12-20T09:37:58;4.37;;;1.33;;
25984;SDS011;66753;53.848;10.658;2023-12-20T09:53:00;0.53;;;0.20;;
25984;SDS011;66753;53.848;10.658;2023-12-20T10:08:05;0.50;;;0.20;;
25984;SDS011;66753;53.848;10.658;2023-12-20T10:23:06;0.30;;;0.17;;
25984;SDS011;66753;53.848;10.658;2023-12-20T10:38:08;2.07;;;0.20;;
25984;SDS011;66753;53.848;10.658;2023-12-20T10:53:09;2.30;;;0.20;;
25984;SDS011;66753;53.848;10.658;2023-12-20T11:08:15;3.20;;;0.20;;
25984;SDS011;66753;53.848;10.658;2023-12-20T11:23:22;4.90;;;0.67;;
25984;SDS011;66753;53.848;10.658;2023-12-20T11:38:25;2.20;;;0.10;;
25984;SDS011;66753;53.848;10.658;2023-12-20T11:53:26;1.70;;;0.27;;
25984;SDS011;66753;53.848;10.658;2023-12-20T12:08:28;3.17;;;0.50;;
25984;SDS011;66753;53.848;10.658;2023-12-20T12:23:29;2.67;;;0.40;;
25984;SDS011;66753;53.848;10.658;2023-12-20T12:38:30;3.90;;;0.37;;
25984;SDS011;66753;53.848;10.658;2023-12-20T12:53:32;2.57;;;0.67;;
25984;SDS011;66753;53.848;10.658;2023-12-20T13:08:33;7.33;;;1.43;;
25984;SDS011;66753;53.848;10.658;2023-12-20T13:23:34;8.90;;;1.30;;
25984;SDS011;66753;53.848;10.658;2023-12-20T13:38:36;12.80;;;2.00;;
25984;SDS011;66753;53.848;10.658;2023-12-20T13:53:37;12.43;;;1.97;;
25984;SDS011;66753;53.848;10.658;2023-12-20T14:08:38;8.73;;;1.53;;
25984;SDS011;66753;53.848;10.658;2023-12-20T14:23:39;11.63;;;2.00;;
25984;SDS011;66753;53.848;10.658;2023-12-20T14:38:41;11.27;;;2.03;;
25984;SDS011;66753;53.848;10.658;2023-12-20T14:53:42;7.47;;;2.03;;
25984;SDS011;66753;53.848;10.658;2023-12-20T15:08:43;6.57;;;1.83;;
25984;SDS011;66753;53.848;10.658;2023-12-20T15:23:44;5.80;;;1.37;;
25984;SDS011;66753;53.848;10.658;2023-12-20T15:39:05;3.10;;;1.00;;
25984;SDS011;66753;53.848;10.658;2023-12-20T15:54:11;5.80;;;1.50;;
25984;SDS011;66753;53.848;10.658;2023-12-20T16:09:12;7.40;;;1.63;;
25984;SDS011;66753;53.848;10.658;2023-12-20T16:24:14;7.13;;;1.57;;
25984;SDS011;66753;53.848;10.658;2023-12-20T16:39:15;5.47;;;1.60;;
25984;SDS011;66753;53.848;10.658;2023-12-20T16:54:16;6.53;;;1.90;;
25984;SDS011;66753;53.848;10.658;2023-12-20T17:09:18;12.00;;;1.73;;
25984;SDS011;66753;53.848;10.658;2023-12-20T17:24:19;5.93;;;1.23;;
25984;SDS011;66753;53.848;10.658;2023-12-20T17:39:20;6.83;;;1.03;;
25984;SDS011;66753;53.848;10.658;2023-12-20T17:54:21;6.90;;;1.20;;
25984;SDS011;66753;53.848;10.658;2023-12-20T18:09:24;4.70;;;1.50;;
25984;SDS011;66753;53.848;10.658;2023-12-20T18:24:25;6.67;;;1.83;;
25984;SDS011;66753;53.848;10.658;2023-12-20T18:39:26;8.40;;;1.40;;
25984;SDS011;66753;53.848;10.658;2023-12-20T18:54:28;2.80;;;0.90;;
25984;SDS011;66753;53.848;10.658;2023-12-20T19:09:29;6.37;;;1.67;;
25984;SDS011;66753;53.848;10.658;2023-12-20T19:24:31;6.60;;;1.40;;
25984;SDS011;66753;53.848;10.658;2023-12-20T19:39:32;4.90;;;1.00;;
25984;SDS011;66753;53.848;10.658;2023-12-20T19:54:35;6.50;;;1.47;;
25984;SDS011;66753;53.848;10.658;2023-12-20T20:09:36;7.53;;;1.50;;
25984;SDS011;66753;53.848;10.658;2023-12-20T20:24:37;4.90;;;1.10;;
25984;SDS011;66753;53.848;10.658;2023-12-20T20:39:39;5.73;;;0.87;;
25984;SDS011;66753;53.848;10.658;2023-12-20T20:54:41;4.73;;;0.70;;
25984;SDS011;66753;53.848;10.658;2023-12-20T21:09:43;6.30;;;0.70;;
25984;SDS011;66753;53.848;10.658;2023-12-20T21:24:45;3.97;;;0.83;;
25984;SDS011;66753;53.848;10.658;2023-12-20T21:39:47;5.07;;;1.00;;
25984;SDS011;66753;53.848;10.658;2023-12-20T21:54:49;4.27;;;1.10;;
25984;SDS011;66753;53.848;10.658;2023-12-20T22:09:52;3.87;;;1.47;;
25984;SDS011;66753;53.848;10.658;2023-12-20T22:24:54;4.80;;;1.77;;
25984;SDS011;66753;53.848;10.658;2023-12-20T22:39:55;4.37;;;1.23;;
25984;SDS011;66753;53.848;10.658;2023-12-20T22:54:56;5.20;;;1.67;;
25984;SDS011;66753;53.848;10.658;2023-12-20T23:09:57;2.43;;;0.97;;
25984;SDS011;66753;53.848;10.658;2023-12-20T23:25:00;3.83;;;1.30;;
25984;SDS011;66753;53.848;10.658;2023-12-20T23:40:02;4.23;;;1.40;;
25984;SDS011;66753;53.848;10.658;2023-12-20T23:55:05;3.93;;;1.40;;
